Time;durP1;ratioP1;P1;durP2;ratioP2;P2;SDS_P1;SDS_P2;PMS_P1;PMS_P2;Temp;Humidity;BMP_temperature;BMP_pressure;BME280_temperature;BME280_humidity;BME280_pressure;Samples;Min_cycle;Max_cycle;Signal;HPM_P1;HPM_P2
2021/06/29 00:00:56;;;;;;;9.27;8.50;;;22.90;99.90;;;;;;5031206;28;20817;-70
2021/06/29 00:03:24;;;;;;;8.30;7.60;;;22.90;99.90;;;;;;5031576;28;20428;-70
2021/06/29 00:05:52;;;;;;;8.07;7.47;;;22.80;99.90;;;;;;5031332;28;20929;-70
2021/06/29 00:08:20;;;;;;;7.70;6.93;;;22.80;99.90;;;;;;5013884;28;20417;-70
2021/06/29 00:10:49;;;;;;;7.90;6.90;;;22.70;99.90;;;;;;5013357;28;20452;-69
2021/06/29 00:13:18;;;;;;;8.77;7.27;;;22.80;99.90;;;;;;5031177;28;20977;-71
2021/06/29 00:15:47;;;;;;;8.53;7.73;;;22.70;99.90;;;;;;5031303;28;20493;-70
2021/06/29 00:18:17;;;;;;;8.23;7.53;;;22.60;99.90;;;;;;5031447;28;20428;-70
2021/06/29 00:20:45;;;;;;;8.20;7.40;;;22.70;99.90;;;;;;5031183;28;20440;-70
2021/06/29 00:23:13;;;;;;;8.50;7.73;;;22.70;99.90;;;;;;5030600;28;20501;-70
2021/06/29 00:25:42;;;;;;;11.93;8.20;;;22.60;99.90;;;;;;5031022;28;20435;-70
2021/06/29 00:28:10;;;;;;;14.00;7.87;;;22.60;99.90;;;;;;5013093;28;20828;-71
2021/06/29 00:30:38;;;;;;;7.87;7.17;;;22.60;99.90;;;;;;5013177;28;20455;-71
2021/06/29 00:33:06;;;;;;;9.13;8.33;;;22.70;99.90;;;;;;5031198;28;20459;-71
2021/06/29 00:35:36;;;;;;;7.97;7.37;;;22.70;99.90;;;;;;5031035;28;20418;-71
2021/06/29 00:38:04;;;;;;;8.83;8.03;;;22.70;99.90;;;;;;5031098;28;20764;-71
2021/06/29 00:40:33;;;;;;;9.67;8.77;;;22.70;99.90;;;;;;5030256;28;20436;-70
2021/06/29 00:43:01;;;;;;;8.03;7.43;;;22.60;99.90;;;;;;5030610;28;20420;-70
2021/06/29 00:45:29;;;;;;;8.60;7.90;;;22.60;99.90;;;;;;5031221;28;20914;-70
2021/06/29 00:47:57;;;;;;;8.00;7.20;;;22.60;99.90;;;;;;5030472;28;20402;-70
2021/06/29 00:50:26;;;;;;;8.70;8.00;;;22.60;99.90;;;;;;5030518;28;20844;-70
2021/06/29 00:52:55;;;;;;;9.17;8.30;;;22.50;99.90;;;;;;5030182;28;20460;-70
2021/06/29 00:55:24;;;;;;;9.33;8.43;;;22.50;99.90;;;;;;5030900;28;20398;-70
2021/06/29 00:57:53;;;;;;;9.23;8.47;;;22.50;99.90;;;;;;5030658;28;20786;-70
2021/06/29 01:00:22;;;;;;;8.27;7.57;;;22.50;99.90;;;;;;5030138;28;20434;-71
2021/06/29 01:02:51;;;;;;;10.00;8.77;;;22.60;99.90;;;;;;5030235;28;20460;-70
2021/06/29 01:05:20;;;;;;;8.67;7.97;;;22.50;99.90;;;;;;5032471;28;20419;-71
2021/06/29 01:07:48;;;;;;;9.27;8.40;;;22.50;99.90;;;;;;5034674;28;20390;-69
2021/06/29 01:10:19;;;;;;;9.80;8.90;;;22.50;99.90;;;;;;5034406;28;20424;-70
2021/06/29 01:12:47;;;;;;;9.13;8.23;;;22.50;99.90;;;;;;5034582;28;20768;-70
2021/06/29 01:15:22;;;;;;;8.70;7.90;;;22.40;99.90;;;;;;5034638;28;20420;-71
2021/06/29 01:17:52;;;;;;;10.10;9.13;;;22.40;99.90;;;;;;5035075;28;20500;-69
2021/06/29 01:20:25;;;;;;;8.60;7.80;;;22.40;99.90;;;;;;5034141;28;20440;-69
2021/06/29 01:22:56;;;;;;;9.03;8.17;;;22.40;99.90;;;;;;5034003;28;20940;-68
2021/06/29 01:25:29;;;;;;;9.53;8.67;;;22.40;99.90;;;;;;5034201;28;20423;-70
2021/06/29 01:28:15;;;;;;;9.23;8.33;;;22.50;99.90;;;;;;5034324;28;20420;-71
2021/06/29 01:31:01;;;;;;;9.07;8.30;;;22.50;99.90;;;;;;5034132;28;20531;-70
2021/06/29 01:33:29;;;;;;;8.30;7.60;;;22.50;99.90;;;;;;5033820;28;20459;-70
2021/06/29 01:35:59;;;;;;;9.20;8.30;;;22.50;99.90;;;;;;5034048;28;20395;-70
2021/06/29 01:38:28;;;;;;;8.53;7.83;;;22.50;99.90;;;;;;5034092;28;20442;-71
2021/06/29 01:40:56;;;;;;;11.07;9.77;;;22.40;99.90;;;;;;5016042;28;20821;-71
2021/06/29 01:43:27;;;;;;;9.20;8.40;;;22.40;99.90;;;;;;5033826;28;20450;-71
2021/06/29 01:45:56;;;;;;;9.47;8.60;;;22.40;99.90;;;;;;5034035;28;20394;-71
2021/06/29 01:48:25;;;;;;;10.00;8.23;;;22.40;99.90;;;;;;5034107;28;21010;-70
2021/06/29 01:50:55;;;;;;;9.90;9.00;;;22.40;99.90;;;;;;5033578;28;20444;-70
2021/06/29 01:53:25;;;;;;;10.00;9.13;;;22.40;99.90;;;;;;5015327;28;20489;-70
2021/06/29 01:55:53;;;;;;;8.87;8.03;;;22.40;99.90;;;;;;5034133;28;20887;-70
2021/06/29 01:58:24;;;;;;;9.60;7.77;;;22.40;99.90;;;;;;5033492;28;20494;-71
2021/06/29 02:00:53;;;;;;;12.83;8.50;;;22.30;99.90;;;;;;5015536;28;20487;-70
2021/06/29 02:03:22;;;;;;;9.40;8.50;;;22.30;99.90;;;;;;5033644;28;20461;-70
2021/06/29 02:05:50;;;;;;;10.13;9.13;;;22.30;99.90;;;;;;5016035;28;20428;-71
2021/06/29 02:08:18;;;;;;;9.23;8.43;;;22.40;99.90;;;;;;5033944;28;20860;-71
2021/06/29 02:10:48;;;;;;;8.23;7.60;;;22.30;99.90;;;;;;5015834;28;20426;-69
2021/06/29 02:13:16;;;;;;;8.67;7.77;;;22.30;99.90;;;;;;5032939;28;20395;-70
2021/06/29 02:15:45;;;;;;;9.10;8.20;;;22.20;99.90;;;;;;5015455;28;20415;-71
2021/06/29 02:18:13;;;;;;;9.77;8.87;;;22.20;99.90;;;;;;5032777;28;20422;-69
2021/06/29 02:20:41;;;;;;;9.43;8.53;;;22.10;99.90;;;;;;5033112;28;20417;-70
2021/06/29 02:23:09;;;;;;;11.20;10.20;;;22.00;99.90;;;;;;5015262;28;20417;-70
2021/06/29 02:25:37;;;;;;;9.23;8.43;;;22.00;99.90;;;;;;5033101;28;20408;-70
2021/06/29 02:28:07;;;;;;;9.93;8.97;;;22.00;99.90;;;;;;5015412;28;20459;-70
2021/06/29 02:30:35;;;;;;;10.07;9.17;;;21.90;99.90;;;;;;5032669;28;20790;-69
2021/06/29 02:33:05;;;;;;;9.43;8.60;;;22.00;99.90;;;;;;5032597;28;20398;-70
2021/06/29 02:35:33;;;;;;;10.50;9.47;;;22.00;99.90;;;;;;5032849;28;20454;-70
2021/06/29 02:38:01;;;;;;;9.50;8.50;;;22.00;99.90;;;;;;5015306;28;20454;-70
2021/06/29 02:40:30;;;;;;;9.43;8.50;;;22.20;99.90;;;;;;5032795;28;20429;-70
2021/06/29 02:42:59;;;;;;;10.80;9.70;;;22.30;99.90;;;;;;5032625;28;20391;-71
2021/06/29 02:45:29;;;;;;;9.50;8.60;;;22.30;99.90;;;;;;5032445;28;20428;-70
2021/06/29 02:47:58;;;;;;;10.67;9.77;;;22.40;99.90;;;;;;5033067;28;20762;-70
2021/06/29 02:50:26;;;;;;;8.70;8.00;;;22.40;99.90;;;;;;5032747;28;20797;-70
2021/06/29 02:52:55;;;;;;;10.10;9.20;;;22.40;99.90;;;;;;5033067;28;20910;-70
2021/06/29 02:55:23;;;;;;;8.93;8.20;;;22.50;99.90;;;;;;5032793;28;20467;-70
2021/06/29 02:57:51;;;;;;;10.43;9.33;;;22.50;99.90;;;;;;5032619;28;20425;-70
2021/06/29 03:00:21;;;;;;;10.30;8.60;;;22.50;99.90;;;;;;5032218;28;20455;-70
2021/06/29 03:02:51;;;;;;;10.93;9.93;;;22.50;99.90;;;;;;5032218;28;20938;-70
2021/06/29 03:05:19;;;;;;;8.83;8.13;;;22.50;99.90;;;;;;5032185;28;20436;-70
2021/06/29 03:07:47;;;;;;;9.30;8.40;;;22.60;99.90;;;;;;5014740;28;20496;-71
2021/06/29 03:10:16;;;;;;;8.37;7.63;;;22.60;99.90;;;;;;5032398;28;20439;-71
2021/06/29 03:12:44;;;;;;;12.03;9.97;;;22.70;99.90;;;;;;5032212;28;20403;-70
2021/06/29 03:15:12;;;;;;;17.80;8.90;;;22.70;99.90;;;;;;5032369;28;20472;-69
2021/06/29 03:17:40;;;;;;;8.67;7.97;;;22.80;99.90;;;;;;5032396;28;20522;-69
2021/06/29 03:20:11;;;;;;;10.70;9.70;;;22.80;99.90;;;;;;5032231;28;20442;-70
2021/06/29 03:22:40;;;;;;;10.10;9.20;;;22.80;99.90;;;;;;5032015;28;20402;-70
2021/06/29 03:25:09;;;;;;;11.10;10.00;;;22.80;99.90;;;;;;5032574;28;20394;-70
2021/06/29 03:27:37;;;;;;;9.60;8.80;;;22.70;99.90;;;;;;5031747;28;20421;-70
2021/06/29 03:30:07;;;;;;;8.80;8.07;;;22.70;99.90;;;;;;5031258;28;20447;-70
2021/06/29 03:32:35;;;;;;;9.80;8.90;;;22.80;99.90;;;;;;5031794;28;20913;-70
2021/06/29 03:35:07;;;;;;;9.40;8.60;;;22.80;99.90;;;;;;5031877;28;20442;-71
2021/06/29 03:37:38;;;;;;;10.30;9.40;;;22.70;99.90;;;;;;5031867;28;20420;-70
2021/06/29 03:40:08;;;;;;;9.30;8.50;;;22.80;99.90;;;;;;5031575;28;20424;-70
2021/06/29 03:42:36;;;;;;;10.20;9.40;;;22.80;99.90;;;;;;5031490;28;20770;-70
2021/06/29 03:45:06;;;;;;;10.27;9.37;;;22.80;99.90;;;;;;5032631;28;20406;-70
2021/06/29 03:47:35;;;;;;;12.03;10.90;;;22.90;99.90;;;;;;5014776;28;20440;-70
2021/06/29 03:50:05;;;;;;;9.60;8.80;;;23.00;99.90;;;;;;5014509;28;20490;-69
2021/06/29 03:52:33;;;;;;;13.90;9.70;;;23.10;99.90;;;;;;5014842;28;20766;-69
2021/06/29 03:55:03;;;;;;;10.40;9.40;;;23.10;99.90;;;;;;5014168;28;20484;-70
2021/06/29 03:57:31;;;;;;;10.00;9.10;;;23.10;99.90;;;;;;5031619;28;20523;-70
2021/06/29 04:00:00;;;;;;;9.40;8.60;;;23.10;99.90;;;;;;5031397;28;20447;-72
2021/06/29 04:02:28;;;;;;;10.47;9.63;;;23.20;99.90;;;;;;5031345;28;20416;-72
2021/06/29 04:04:56;;;;;;;9.50;8.73;;;23.40;99.90;;;;;;5013788;28;20469;-70
2021/06/29 04:07:27;;;;;;;12.93;9.30;;;23.40;99.90;;;;;;5031578;28;20948;-70
2021/06/29 04:09:56;;;;;;;10.10;9.20;;;23.40;99.90;;;;;;5031295;28;20879;-69
2021/06/29 04:12:26;;;;;;;9.90;8.97;;;23.40;99.90;;;;;;5031284;28;20398;-68
2021/06/29 04:14:55;;;;;;;11.00;10.10;;;23.40;99.90;;;;;;5031719;28;20991;-71
2021/06/29 04:17:23;;;;;;;10.80;9.47;;;23.40;99.90;;;;;;5031666;28;20420;-71
2021/06/29 04:19:51;;;;;;;9.70;8.37;;;23.50;99.90;;;;;;5031341;28;20432;-70
2021/06/29 04:22:19;;;;;;;8.80;7.83;;;23.60;99.90;;;;;;5031161;28;20774;-69
2021/06/29 04:24:48;;;;;;;11.50;10.50;;;23.70;99.90;;;;;;5031279;28;20431;-68
2021/06/29 04:27:16;;;;;;;10.20;9.30;;;23.70;99.90;;;;;;5031585;28;20420;-69
2021/06/29 04:29:45;;;;;;;10.03;9.03;;;23.80;99.90;;;;;;5031488;28;20407;-70
2021/06/29 04:32:14;;;;;;;11.03;10.03;;;23.90;99.90;;;;;;5031126;28;20889;-70
2021/06/29 04:34:42;;;;;;;10.23;9.33;;;23.90;99.90;;;;;;5043921;23;20595;-72
2021/06/29 04:37:10;;;;;;;10.47;9.43;;;24.10;99.90;;;;;;5030740;28;20431;-72
2021/06/29 04:39:38;;;;;;;10.67;9.67;;;24.20;99.90;;;;;;5030762;28;20428;-71
2021/06/29 04:42:07;;;;;;;11.30;10.10;;;24.40;99.90;;;;;;5030446;28;20447;-71
2021/06/29 04:44:38;;;;;;;9.27;8.47;;;24.30;99.90;;;;;;5030691;28;20436;-71
2021/06/29 04:47:09;;;;;;;10.83;9.73;;;24.50;99.90;;;;;;5030939;28;20482;-71
2021/06/29 04:49:38;;;;;;;10.80;9.80;;;24.60;99.90;;;;;;5030696;28;20514;-72
2021/06/29 04:52:07;;;;;;;10.00;9.10;;;24.70;99.90;;;;;;5030662;28;20519;-71
2021/06/29 04:54:35;;;;;;;11.13;10.13;;;24.80;99.90;;;;;;5030724;28;20416;-73
2021/06/29 04:57:03;;;;;;;14.10;9.13;;;24.90;99.90;;;;;;5029518;28;20458;-72
2021/06/29 04:59:31;;;;;;;14.10;9.73;;;25.20;99.90;;;;;;5030639;28;20459;-72
2021/06/29 05:02:00;;;;;;;10.77;9.87;;;25.30;99.90;;;;;;5030767;28;20511;-72
2021/06/29 05:04:29;;;;;;;11.03;9.97;;;25.50;99.90;;;;;;5029723;28;20940;-72
2021/06/29 05:06:58;;;;;;;10.83;9.90;;;26.70;99.90;;;;;;5030777;28;20846;-73
2021/06/29 05:09:26;;;;;;;10.50;9.70;;;28.40;99.90;;;;;;5030710;28;20408;-73
2021/06/29 05:11:54;;;;;;;10.83;9.77;;;28.50;99.90;;;;;;5030714;28;20816;-73
2021/06/29 05:14:22;;;;;;;10.20;9.30;;;28.00;99.90;;;;;;5030742;28;20434;-73
2021/06/29 05:16:50;;;;;;;10.60;9.73;;;28.00;99.90;;;;;;5030589;28;20468;-71
2021/06/29 05:19:18;;;;;;;10.90;9.93;;;29.30;99.90;;;;;;5030631;28;20421;-73
2021/06/29 05:21:48;;;;;;;10.10;9.20;;;30.80;99.90;;;;;;5030172;28;20447;-72
2021/06/29 05:24:16;;;;;;;10.77;9.77;;;32.30;99.90;;;;;;5030316;28;20424;-72
2021/06/29 05:26:45;;;;;;;10.90;9.70;;;33.10;99.90;;;;;;5030433;28;20439;-71
2021/06/29 05:29:13;;;;;;;9.53;8.70;;;33.80;99.90;;;;;;5030271;28;20431;-72
2021/06/29 05:31:41;;;;;;;11.93;10.83;;;33.90;99.90;;;;;;5030227;28;20538;-73
2021/06/29 05:34:09;;;;;;;10.10;9.20;;;34.00;99.90;;;;;;5029917;28;20446;-73
2021/06/29 05:36:38;;;;;;;10.20;9.40;;;34.10;99.90;;;;;;5030435;28;20482;-71
2021/06/29 05:39:08;;;;;;;11.33;10.23;;;34.30;99.90;;;;;;5030385;28;20521;-71
2021/06/29 05:41:36;;;;;;;11.30;10.40;;;33.20;99.90;;;;;;5030637;28;20439;-71
2021/06/29 05:44:04;;;;;;;11.20;10.23;;;31.80;99.90;;;;;;5030041;28;20435;-73
2021/06/29 05:46:32;;;;;;;10.70;9.80;;;29.90;99.90;;;;;;5030404;28;20947;-71
2021/06/29 05:49:03;;;;;;;12.17;11.00;;;28.60;99.90;;;;;;5030561;28;20424;-72
2021/06/29 05:51:31;;;;;;;9.50;8.63;;;27.70;99.90;;;;;;5030901;28;20444;-72
2021/06/29 05:53:59;;;;;;;10.30;9.50;;;27.00;99.90;;;;;;5033727;28;20427;-71
2021/06/29 05:56:29;;;;;;;11.43;10.43;;;26.70;99.90;;;;;;5034043;28;20466;-71
2021/06/29 05:58:57;;;;;;;18.67;11.43;;;26.60;99.90;;;;;;5034125;28;20425;-72
2021/06/29 06:01:25;;;;;;;11.47;10.47;;;26.40;99.90;;;;;;5033981;28;20450;-72
2021/06/29 06:04:10;;;;;;;11.63;10.53;;;26.20;99.90;;;;;;5034459;28;20423;-73
2021/06/29 06:06:38;;;;;;;11.87;10.77;;;26.20;99.90;;;;;;5033981;28;20430;-73
2021/06/29 06:09:06;;;;;;;11.60;10.50;;;26.10;99.90;;;;;;5034785;28;20508;-73
2021/06/29 06:11:36;;;;;;;14.97;10.70;;;26.20;99.90;;;;;;5034977;28;20444;-72
2021/06/29 06:14:04;;;;;;;12.87;11.63;;;26.40;99.90;;;;;;5032793;28;21043;-73
2021/06/29 06:16:32;;;;;;;10.23;9.40;;;26.60;99.90;;;;;;5035693;28;20473;-73
2021/06/29 06:19:01;;;;;;;12.10;11.00;;;26.80;99.90;;;;;;5035112;28;20424;-73
2021/06/29 06:21:29;;;;;;;13.53;12.23;;;26.70;99.90;;;;;;5033887;28;20444;-72
2021/06/29 06:23:57;;;;;;;11.80;10.47;;;26.80;99.90;;;;;;5033506;28;20937;-72
2021/06/29 06:26:26;;;;;;;12.10;11.10;;;27.10;99.90;;;;;;5033452;28;20420;-72
2021/06/29 06:28:55;;;;;;;11.37;10.33;;;27.30;99.90;;;;;;5033215;28;20428;-72
2021/06/29 06:31:23;;;;;;;12.13;11.03;;;27.60;99.90;;;;;;5033434;28;20983;-72
2021/06/29 06:33:52;;;;;;;13.40;12.20;;;27.60;99.90;;;;;;5032731;28;20424;-72
2021/06/29 06:36:20;;;;;;;14.10;12.67;;;27.50;99.90;;;;;;5033155;28;20952;-72
2021/06/29 06:38:48;;;;;;;11.43;10.33;;;27.80;99.90;;;;;;5032916;28;20452;-74
2021/06/29 06:41:17;;;;;;;12.93;11.83;;;28.00;99.90;;;;;;5033094;28;20982;-73
2021/06/29 06:43:46;;;;;;;13.13;11.83;;;28.30;99.90;;;;;;5032883;28;20498;-72
2021/06/29 06:46:15;;;;;;;12.73;11.53;;;28.10;99.90;;;;;;5033080;28;20762;-72
2021/06/29 06:48:43;;;;;;;13.30;12.20;;;27.80;99.90;;;;;;5033001;28;20459;-71
2021/06/29 06:51:13;;;;;;;15.30;13.80;;;27.50;99.90;;;;;;5033223;28;20463;-73
2021/06/29 06:53:42;;;;;;;13.60;12.30;;;27.40;99.90;;;;;;5033159;28;20486;-73
2021/06/29 06:56:14;;;;;;;13.90;12.50;;;27.10;99.90;;;;;;5032629;28;20464;-72
2021/06/29 06:58:42;;;;;;;12.80;11.70;;;26.90;99.90;;;;;;5032858;28;20959;-72
2021/06/29 07:01:16;;;;;;;15.40;14.10;;;26.90;99.90;;;;;;5048377;28;20874;-72
2021/06/29 07:03:45;;;;;;;13.83;12.63;;;27.00;99.90;;;;;;5033206;28;20424;-73
2021/06/29 07:06:14;;;;;;;12.87;11.80;;;27.20;99.90;;;;;;5034467;28;20415;-73
2021/06/29 07:08:43;;;;;;;14.50;13.20;;;27.10;99.90;;;;;;5034805;28;20412;-72
2021/06/29 07:11:11;;;;;;;14.83;13.53;;;27.20;99.90;;;;;;5036767;28;20487;-73
2021/06/29 07:13:40;;;;;;;14.70;13.40;;;27.30;99.90;;;;;;5035642;28;20424;-73
2021/06/29 07:16:08;;;;;;;14.80;13.50;;;27.50;99.90;;;;;;5035273;28;20424;-74
2021/06/29 07:18:38;;;;;;;14.50;13.20;;;27.70;99.90;;;;;;5035973;28;20416;-73
2021/06/29 07:21:07;;;;;;;13.80;12.70;;;28.10;99.90;;;;;;5037754;28;20454;-72
2021/06/29 07:23:35;;;;;;;16.00;14.60;;;28.40;99.90;;;;;;5033945;28;20428;-71
2021/06/29 07:26:04;;;;;;;13.47;12.30;;;28.60;99.90;;;;;;5032604;28;20429;-71
2021/06/29 07:28:32;;;;;;;14.17;12.77;;;28.90;99.90;;;;;;5032566;28;20425;-72
2021/06/29 07:31:01;;;;;;;14.57;13.03;;;29.20;99.90;;;;;;5032436;28;20483;-72
2021/06/29 07:33:30;;;;;;;14.37;13.17;;;29.30;99.90;;;;;;5031072;28;20476;-73
2021/06/29 07:35:59;;;;;;;13.80;12.53;;;29.50;99.90;;;;;;5032423;28;20443;-75
2021/06/29 07:38:27;;;;;;;14.30;13.00;;;29.60;99.90;;;;;;5032648;28;20454;-71
2021/06/29 07:40:55;;;;;;;13.83;12.63;;;29.90;99.90;;;;;;5032165;28;20444;-74
2021/06/29 07:43:24;;;;;;;15.73;14.23;;;30.00;99.90;;;;;;5032097;28;20444;-72
2021/06/29 07:45:52;;;;;;;14.67;13.27;;;30.20;99.90;;;;;;5033126;28;20710;-71
2021/06/29 07:48:20;;;;;;;14.17;12.90;;;30.20;99.90;;;;;;5032122;28;20444;-73
2021/06/29 07:50:48;;;;;;;15.77;14.47;;;29.90;99.90;;;;;;5031771;28;20494;-73
2021/06/29 07:53:18;;;;;;;14.37;12.87;;;29.50;99.90;;;;;;5031802;28;20425;-72
2021/06/29 07:55:46;;;;;;;14.10;12.80;;;29.30;99.90;;;;;;5031913;28;20424;-72
2021/06/29 07:58:14;;;;;;;12.30;11.40;;;29.50;99.90;;;;;;5031710;28;20472;-73
2021/06/29 08:00:43;;;;;;;14.03;12.70;;;29.60;99.90;;;;;;5031845;28;20490;-73
2021/06/29 08:03:11;;;;;;;13.97;12.57;;;29.90;99.90;;;;;;5032189;28;20983;-73
2021/06/29 08:05:40;;;;;;;11.73;10.73;;;30.40;99.90;;;;;;5032658;28;20424;-72
2021/06/29 08:08:09;;;;;;;11.37;10.37;;;30.60;99.90;;;;;;5032839;28;20424;-71
2021/06/29 08:10:39;;;;;;;11.07;10.07;;;30.80;99.90;;;;;;5033517;28;20439;-72
2021/06/29 08:13:08;;;;;;;12.47;11.37;;;31.00;99.90;;;;;;5032638;28;20425;-73
2021/06/29 08:15:36;;;;;;;11.90;10.97;;;31.10;99.90;;;;;;5032067;28;20427;-72
2021/06/29 08:18:05;;;;;;;14.33;13.13;;;31.30;99.90;;;;;;5032205;28;20490;-73
2021/06/29 08:20:34;;;;;;;11.90;10.90;;;31.20;99.90;;;;;;5031798;28;20432;-73
2021/06/29 08:23:02;;;;;;;11.03;9.60;;;31.10;99.90;;;;;;5031769;28;20424;-73
2021/06/29 08:25:30;;;;;;;12.77;11.63;;;31.00;99.90;;;;;;5031568;28;20416;-73
2021/06/29 08:28:00;;;;;;;13.43;12.07;;;31.10;99.90;;;;;;5031435;28;20415;-72
2021/06/29 08:30:28;;;;;;;10.90;10.00;;;31.10;99.90;;;;;;5031310;28;20531;-72
2021/06/29 08:32:57;;;;;;;13.33;12.10;;;31.10;99.90;;;;;;5031114;28;20463;-73
2021/06/29 08:35:25;;;;;;;12.90;11.53;;;31.10;99.90;;;;;;5031107;28;20572;-73
2021/06/29 08:37:54;;;;;;;12.10;11.10;;;31.20;99.90;;;;;;5030962;28;20554;-72
2021/06/29 08:40:22;;;;;;;12.73;11.60;;;31.50;99.90;;;;;;5029799;28;21055;-71
2021/06/29 08:42:50;;;;;;;14.60;13.33;;;31.50;99.90;;;;;;5031002;28;20428;-72
2021/06/29 08:45:20;;;;;;;12.30;11.13;;;31.20;99.90;;;;;;5031178;28;20420;-72
2021/06/29 08:47:50;;;;;;;12.43;11.33;;;31.30;99.90;;;;;;5029827;28;20436;-72
2021/06/29 08:50:19;;;;;;;11.17;10.20;;;31.40;99.90;;;;;;5030800;28;20456;-73
2021/06/29 08:52:48;;;;;;;10.13;9.43;;;31.40;99.90;;;;;;5031015;28;20434;-73
2021/06/29 08:55:18;;;;;;;9.73;8.93;;;31.60;99.90;;;;;;5030982;28;20783;-73
2021/06/29 08:57:46;;;;;;;11.87;10.43;;;31.70;99.90;;;;;;5029936;28;20516;-72
2021/06/29 09:00:15;;;;;;;11.40;10.40;;;31.20;99.90;;;;;;5030747;28;20421;-73
2021/06/29 09:02:45;;;;;;;9.40;8.60;;;31.30;99.90;;;;;;5030924;28;20475;-73
2021/06/29 09:05:22;;;;;;;9.40;8.60;;;31.40;99.90;;;;;;5031575;28;20435;-72
2021/06/29 09:08:03;;;;;;;10.80;9.80;;;31.50;99.90;;;;;;5031326;28;20466;-73
2021/06/29 09:10:32;;;;;;;9.17;8.47;;;31.30;99.90;;;;;;5031200;28;20494;-72
2021/06/29 09:13:01;;;;;;;9.10;8.40;;;31.40;99.90;;;;;;5030830;28;20420;-73
2021/06/29 09:15:37;;;;;;;9.90;9.10;;;31.80;99.90;;;;;;5031127;28;20768;-72
2021/06/29 09:18:13;;;;;;;10.47;9.57;;;32.10;99.90;;;;;;5031217;28;20473;-73
2021/06/29 09:20:50;;;;;;;10.63;9.63;;;32.10;99.90;;;;;;5031168;28;20440;-75
2021/06/29 09:23:20;;;;;;;9.30;8.40;;;32.10;99.90;;;;;;5031304;28;20429;-72
2021/06/29 09:25:50;;;;;;;10.27;9.47;;;32.00;99.90;;;;;;5031167;28;20831;-73
2021/06/29 09:28:21;;;;;;;9.70;8.80;;;31.70;99.90;;;;;;5032919;28;20506;-72
2021/06/29 09:30:50;;;;;;;9.20;8.50;;;31.50;99.90;;;;;;5035024;28;20543;-72
2021/06/29 09:33:22;;;;;;;8.37;7.70;;;31.60;99.90;;;;;;5034612;28;20424;-73
2021/06/29 09:35:53;;;;;;;9.97;9.10;;;31.90;99.90;;;;;;5034775;28;20524;-72
2021/06/29 09:38:24;;;;;;;10.00;9.20;;;32.20;99.90;;;;;;5034737;28;20917;-73
2021/06/29 09:40:55;;;;;;;10.17;9.07;;;32.50;99.90;;;;;;5034519;28;20520;-72
2021/06/29 09:43:24;;;;;;;9.30;8.60;;;32.50;99.90;;;;;;5034609;28;20441;-72
2021/06/29 09:45:56;;;;;;;10.60;9.70;;;32.30;99.90;;;;;;5034750;28;20435;-72
2021/06/29 09:48:39;;;;;;;9.53;8.73;;;32.10;99.90;;;;;;5035176;28;20474;-73
2021/06/29 09:51:12;;;;;;;9.77;9.00;;;31.90;99.90;;;;;;5034383;28;20466;-72
2021/06/29 09:53:42;;;;;;;9.87;8.83;;;31.90;99.90;;;;;;5032781;28;20479;-72
2021/06/29 09:56:15;;;;;;;9.87;8.97;;;32.00;99.90;;;;;;5033954;28;20471;-73
2021/06/29 09:58:46;;;;;;;9.67;8.77;;;32.00;99.90;;;;;;5034119;28;20558;-72
2021/06/29 10:01:19;;;;;;;9.40;8.60;;;31.60;99.90;;;;;;5034368;28;21030;-71
2021/06/29 10:03:51;;;;;;;10.10;9.30;;;31.00;99.90;;;;;;5033937;28;20452;-72
2021/06/29 10:06:22;;;;;;;9.03;8.23;;;31.40;99.90;;;;;;5034703;28;20442;-73
2021/06/29 10:08:51;;;;;;;9.40;8.70;;;31.60;99.90;;;;;;5036224;28;20445;-73
2021/06/29 10:11:27;;;;;;;10.37;9.57;;;31.70;99.90;;;;;;5035892;28;20443;-73
2021/06/29 10:14:00;;;;;;;10.77;9.77;;;31.90;99.90;;;;;;5037052;28;20478;-72
2021/06/29 10:16:31;;;;;;;9.77;8.97;;;32.00;99.90;;;;;;5036517;28;20479;-74
2021/06/29 10:19:14;;;;;;;10.63;9.80;;;32.10;99.90;;;;;;5033901;28;20554;-75
2021/06/29 10:21:45;;;;;;;10.20;9.30;;;32.20;99.90;;;;;;5033525;28;20511;-72
2021/06/29 10:24:15;;;;;;;10.10;9.20;;;32.30;99.90;;;;;;5033521;28;20952;-73
2021/06/29 10:26:46;;;;;;;10.57;9.73;;;32.50;99.90;;;;;;5033741;28;20413;-71
2021/06/29 10:29:16;;;;;;;10.03;9.13;;;32.40;99.90;;;;;;5033666;28;20479;-72
2021/06/29 10:31:46;;;;;;;10.50;9.60;;;32.40;99.90;;;;;;5033731;28;20444;-72
2021/06/29 10:34:16;;;;;;;9.73;8.80;;;32.60;99.90;;;;;;5047074;23;20530;-80
2021/06/29 10:36:46;;;;;;;10.00;9.20;;;33.00;99.90;;;;;;5036244;28;20460;-80
2021/06/29 10:39:16;;;;;;;11.53;10.23;;;32.80;99.90;;;;;;5022498;28;20463;-80
2021/06/29 10:41:48;;;;;;;9.67;8.97;;;33.30;99.90;;;;;;5005037;28;20527;-80
2021/06/29 10:44:20;;;;;;;9.17;8.37;;;33.50;99.90;;;;;;5007820;28;20459;-80
2021/06/29 10:46:49;;;;;;;9.30;8.50;;;33.40;99.90;;;;;;5022927;28;20432;-80
2021/06/29 10:49:34;;;;;;;9.90;9.00;;;33.00;99.90;;;;;;5005698;28;20434;-80
2021/06/29 10:52:06;;;;;;;9.53;8.83;;;32.80;99.90;;;;;;5005723;28;20505;-80
2021/06/29 10:54:41;;;;;;;11.17;10.23;;;32.60;99.90;;;;;;5023290;28;20500;-80
2021/06/29 10:57:12;;;;;;;10.00;9.20;;;32.10;99.90;;;;;;5006348;28;20531;-80
2021/06/29 10:59:42;;;;;;;11.00;10.10;;;31.80;99.90;;;;;;5025623;28;20471;-82
2021/06/29 11:02:30;;;;;;;10.10;9.30;;;31.60;99.90;;;;;;5004614;28;20972;-80
2021/06/29 11:05:01;;;;;;;11.90;11.00;;;31.70;99.90;;;;;;5023251;28;20460;-81
2021/06/29 11:07:44;;;;;;;11.93;10.93;;;31.60;99.90;;;;;;5005134;28;20963;-81
2021/06/29 11:10:15;;;;;;;11.40;10.40;;;31.20;99.90;;;;;;5005142;28;20550;-81
2021/06/29 11:12:52;;;;;;;12.10;11.20;;;30.70;99.90;;;;;;5022553;28;20421;-81
2021/06/29 11:15:40;;;;;;;12.07;10.93;;;30.30;99.90;;;;;;5020577;28;20963;-80
2021/06/29 11:18:09;;;;;;;10.80;9.97;;;30.30;99.90;;;;;;5023221;28;20423;-81
2021/06/29 11:20:41;;;;;;;12.00;10.90;;;30.40;99.90;;;;;;5023872;28;20384;-81
2021/06/29 11:23:11;;;;;;;13.63;12.43;;;30.20;99.90;;;;;;5026286;28;20516;-81
2021/06/29 11:25:45;;;;;;;14.87;11.60;;;29.70;99.90;;;;;;5024180;28;20452;-81
2021/06/29 11:28:35;;;;;;;13.33;12.23;;;28.70;99.90;;;;;;5034813;28;20492;-80
2021/06/29 11:31:23;;;;;;;17.20;13.50;;;27.80;99.90;;;;;;5015980;28;20400;-80
2021/06/29 11:33:55;;;;;;;10.23;9.27;;;27.20;99.90;;;;;;5008478;28;20420;-80
2021/06/29 11:36:53;;;;;;;11.53;10.47;;;26.60;99.90;;;;;;5022340;28;20521;-81
2021/06/29 11:39:39;;;;;;;8.57;7.37;;;25.80;99.90;;;;;;5021763;28;20478;-80
2021/06/29 11:42:10;;;;;;;10.20;8.70;;;25.00;99.90;;;;;;5003876;28;20437;-81
2021/06/29 11:44:41;;;;;;;8.50;7.70;;;24.60;99.90;;;;;;5004780;28;20495;-81
2021/06/29 11:47:13;;;;;;;7.77;5.87;;;24.30;99.90;;;;;;5004109;28;20408;-80
2021/06/29 11:49:48;;;;;;;7.27;6.67;;;23.90;99.90;;;;;;5024190;28;20496;-79
2021/06/29 11:52:33;;;;;;;6.97;6.37;;;23.90;99.90;;;;;;5031865;28;20424;-80
2021/06/29 11:55:12;;;;;;;5.60;5.10;;;24.10;99.90;;;;;;5013709;28;20450;-79
2021/06/29 11:57:43;;;;;;;6.17;5.60;;;24.50;99.90;;;;;;5023007;28;20750;-80
2021/06/29 12:00:27;;;;;;;6.70;6.00;;;24.80;99.90;;;;;;5021567;28;20427;-81
2021/06/29 12:03:01;;;;;;;7.60;6.83;;;25.40;99.90;;;;;;5022865;28;20412;-80
2021/06/29 12:05:35;;;;;;;7.20;6.50;;;26.10;99.90;;;;;;5005007;28;20469;-82
2021/06/29 12:08:10;;;;;;;6.00;5.40;;;26.80;99.90;;;;;;5002472;28;20443;-79
2021/06/29 12:10:47;;;;;;;6.87;6.17;;;26.90;99.90;;;;;;5023981;28;20400;-81
2021/06/29 12:13:17;;;;;;;6.97;6.27;;;27.20;99.90;;;;;;5022851;28;20380;-81
2021/06/29 12:15:50;;;;;;;7.23;6.53;;;27.80;99.90;;;;;;5004906;28;20465;-81
2021/06/29 12:18:31;;;;;;;7.90;7.20;;;28.20;99.90;;;;;;5035192;28;20425;-78
2021/06/29 12:21:05;;;;;;;6.57;5.97;;;28.80;99.90;;;;;;5018803;28;20423;-82
2021/06/29 12:23:47;;;;;;;8.87;7.97;;;29.40;99.90;;;;;;5008443;28;20499;-78
2021/06/29 12:26:15;;;;;;;8.20;7.40;;;29.90;99.90;;;;;;5005649;28;20423;-79
2021/06/29 12:28:45;;;;;;;8.20;7.47;;;30.30;99.90;;;;;;5008981;28;20456;-78
2021/06/29 12:31:15;;;;;;;8.23;7.53;;;30.60;99.90;;;;;;5012529;28;20517;-80
2021/06/29 12:33:45;;;;;;;7.73;7.03;;;30.80;99.90;;;;;;5013944;28;20448;-79
2021/06/29 12:36:15;;;;;;;8.50;7.70;;;30.80;99.90;;;;;;5010020;28;20439;-79
2021/06/29 12:38:47;;;;;;;9.27;8.47;;;30.80;99.90;;;;;;5019214;28;20453;-79
2021/06/29 12:41:27;;;;;;;8.80;8.20;;;30.50;99.90;;;;;;5019259;28;20433;-79
2021/06/29 12:43:58;;;;;;;9.10;8.40;;;30.20;99.90;;;;;;5019399;28;20473;-80
2021/06/29 12:46:28;;;;;;;9.40;8.60;;;29.90;99.90;;;;;;5018711;28;20441;-80
2021/06/29 12:49:06;;;;;;;9.57;8.77;;;29.90;99.90;;;;;;5036131;28;20440;-79
2021/06/29 12:51:38;;;;;;;11.30;10.30;;;30.40;99.90;;;;;;5017138;28;20444;-79
2021/06/29 12:54:11;;;;;;;9.17;7.70;;;30.20;99.90;;;;;;5019584;28;20457;-80